createdAt,value
2023-02-28T00:02:11.117Z,-0.71
2023-02-28T00:05:21.213Z,-0.81
2023-02-28T00:08:28.229Z,-0.89
2023-02-28T00:11:33.855Z,-1.00
2023-02-28T00:14:40.652Z,-1.57
2023-02-28T00:17:50.147Z,-1.21
2023-02-28T00:20:56.726Z,-1.16
2023-02-28T00:24:02.206Z,-1.24
2023-02-28T00:27:08.566Z,-1.25
2023-02-28T00:30:19.424Z,-1.38
2023-02-28T00:33:28.657Z,-1.34
2023-02-28T00:36:34.176Z,-1.53
2023-02-28T00:39:44.880Z,-1.68
2023-02-28T00:42:50.314Z,-1.77
2023-02-28T00:45:57.339Z,-1.78
2023-02-28T00:49:05.824Z,-1.82
2023-02-28T00:52:12.113Z,-1.84
2023-02-28T00:55:18.230Z,-1.86
2023-02-28T00:58:24.853Z,-1.87
2023-02-28T01:01:30.819Z,-1.85
2023-02-28T01:04:41.212Z,-1.80
2023-02-28T01:07:46.568Z,-1.80
2023-02-28T01:10:53.254Z,-1.77
2023-02-28T01:13:58.928Z,-1.88
2023-02-28T01:17:05.827Z,-1.95
2023-02-28T01:20:15.568Z,-1.93
2023-02-28T01:23:22.844Z,-1.92
2023-02-28T01:26:28.925Z,-1.85
2023-02-28T01:29:35.179Z,-1.92
2023-02-28T01:32:40.856Z,-2.02
2023-02-28T01:35:50.160Z,-2.02
2023-02-28T01:38:56.433Z,-2.10
2023-02-28T01:42:02.668Z,-2.09
2023-02-28T01:45:26.222Z,-2.24
2023-02-28T01:48:40.889Z,-2.27
2023-02-28T01:51:55.971Z,-2.37
2023-02-28T01:55:08.556Z,-2.32
2023-02-28T01:58:15.691Z,-2.35
2023-02-28T02:01:25.330Z,-2.45
2023-02-28T02:04:43.048Z,-2.45
2023-02-28T02:07:59.505Z,-2.51
2023-02-28T02:11:07.190Z,-2.60
2023-02-28T02:14:44.291Z,-2.70
2023-02-28T02:17:57.521Z,-2.76
2023-02-28T02:21:45.746Z,-2.90
2023-02-28T02:25:27.615Z,-3.46
2023-02-28T02:29:16.482Z,-2.88
2023-02-28T02:33:04.708Z,-2.89
2023-02-28T02:36:26.531Z,-3.06
2023-02-28T02:39:49.415Z,-3.09
2023-02-28T02:43:05.353Z,-3.33
2023-02-28T02:46:21.073Z,-3.30
2023-02-28T02:49:36.296Z,-3.33
2023-02-28T02:52:54.123Z,-3.35
2023-02-28T02:56:06.385Z,-3.36
2023-02-28T02:59:22.210Z,-3.46
2023-02-28T03:02:35.180Z,-3.49
2023-02-28T03:05:51.345Z,-3.55
2023-02-28T03:09:00.678Z,-3.63
2023-02-28T03:12:13.892Z,-3.66
2023-02-28T03:15:32.139Z,-3.64
2023-02-28T03:18:58.840Z,-3.68
2023-02-28T03:22:29.162Z,-3.70
2023-02-28T03:25:56.479Z,-3.69
2023-02-28T03:29:14.121Z,-3.66
2023-02-28T03:32:31.000Z,-3.61
2023-02-28T03:35:45.872Z,-3.56
2023-02-28T03:39:03.794Z,-3.50
2023-02-28T03:42:21.320Z,-3.44
2023-02-28T03:45:33.913Z,-3.42
2023-02-28T03:48:48.623Z,-3.43
2023-02-28T03:52:00.366Z,-3.49
2023-02-28T03:55:14.865Z,-3.62
2023-02-28T03:58:34.251Z,-3.58
2023-02-28T04:01:46.984Z,-3.60
2023-02-28T04:04:52.613Z,-3.67
2023-02-28T04:08:08.669Z,-3.75
2023-02-28T04:11:32.177Z,-3.84
2023-02-28T04:14:41.684Z,-3.92
2023-02-28T04:17:47.071Z,-3.90
2023-02-28T04:20:53.585Z,-3.89
2023-02-28T04:24:01.838Z,-3.90
2023-02-28T04:27:08.196Z,-3.91
2023-02-28T04:30:17.527Z,-3.98
2023-02-28T04:33:23.807Z,-3.96
2023-02-28T04:36:29.883Z,-3.96
2023-02-28T04:39:41.017Z,-3.96
2023-02-28T04:42:46.434Z,-3.97
2023-02-28T04:45:55.645Z,-3.97
2023-02-28T04:49:01.174Z,-3.93
2023-02-28T04:52:08.817Z,-3.90
2023-02-28T04:55:14.634Z,-3.87
2023-02-28T04:58:20.873Z,-3.86
2023-02-28T05:01:33.521Z,-3.93
2023-02-28T05:04:40.676Z,-3.87
2023-02-28T05:07:46.221Z,-3.89
2023-02-28T05:10:52.660Z,-3.88
2023-02-28T05:13:58.146Z,-3.87
2023-02-28T05:17:07.246Z,-3.84
2023-02-28T05:20:16.372Z,-3.83
2023-02-28T05:23:26.652Z,-3.91
2023-02-28T05:26:33.105Z,-3.90
2023-02-28T05:29:44.440Z,-3.97
2023-02-28T05:32:55.910Z,-4.02
2023-02-28T05:36:02.208Z,-4.09
2023-02-28T05:39:13.858Z,-4.14
2023-02-28T05:42:20.513Z,-4.19
2023-02-28T05:45:26.186Z,-4.22
2023-02-28T05:48:35.505Z,-4.25
2023-02-28T05:51:41.212Z,-4.27
2023-02-28T05:54:47.480Z,-4.24
2023-02-28T05:57:53.431Z,-4.25
2023-02-28T06:01:00.234Z,-4.26
2023-02-28T06:04:22.260Z,-4.24
2023-02-28T06:07:31.990Z,-4.25
2023-02-28T06:10:38.149Z,-4.23
2023-02-28T06:13:44.734Z,-4.19
2023-02-28T06:16:51.192Z,-4.42
2023-02-28T06:20:00.569Z,-4.17
2023-02-28T06:23:06.706Z,-4.18
2023-02-28T06:26:13.475Z,-4.19
2023-02-28T06:29:20.551Z,-4.17
2023-02-28T06:32:27.498Z,-4.21
2023-02-28T06:35:35.861Z,-4.14
2023-02-28T06:38:43.615Z,-4.01
2023-02-28T06:41:55.468Z,-4.12
2023-02-28T06:45:04.559Z,-4.07
2023-02-28T06:48:10.290Z,-4.02
2023-02-28T06:51:23.541Z,-3.93
2023-02-28T06:54:29.865Z,-3.81
2023-02-28T06:57:38.897Z,-3.69
2023-02-28T07:00:45.007Z,-3.60
2023-02-28T07:03:53.507Z,-3.57
2023-02-28T07:07:02.088Z,-5.06
2023-02-28T07:10:09.650Z,-3.44
2023-02-28T07:13:15.603Z,-3.29
2023-02-28T07:16:22.910Z,-3.17
2023-02-28T07:19:28.594Z,-3.02
2023-02-28T07:22:37.699Z,-2.96
2023-02-28T07:25:43.090Z,-2.93
2023-02-28T07:28:52.377Z,-2.86
2023-02-28T07:31:58.220Z,-2.78
2023-02-28T07:35:04.628Z,-2.71
2023-02-28T07:38:14.924Z,-2.67
2023-02-28T07:41:29.131Z,-2.59
2023-02-28T07:44:34.788Z,-2.45
2023-02-28T07:47:41.603Z,-2.37
2023-02-28T07:50:49.310Z,-2.34
2023-02-28T07:53:58.444Z,-2.18
2023-02-28T07:57:04.304Z,-2.14
2023-02-28T08:00:16.762Z,-2.10
2023-02-28T08:03:24.911Z,-2.02
2023-02-28T08:06:31.509Z,-1.97
2023-02-28T08:09:40.279Z,-1.97
2023-02-28T08:12:46.699Z,-2.03
2023-02-28T08:15:52.260Z,-1.91
2023-02-28T08:18:58.777Z,-1.83
2023-02-28T08:22:04.221Z,-1.76
2023-02-28T08:25:13.682Z,-1.66
2023-02-28T08:28:19.149Z,-1.62
2023-02-28T08:31:25.605Z,-1.42
2023-02-28T08:34:31.040Z,-1.34
2023-02-28T08:37:37.467Z,-1.23
2023-02-28T08:40:45.770Z,-1.18
2023-02-28T08:43:52.050Z,-1.14
2023-02-28T08:46:57.527Z,-1.07
2023-02-28T08:50:03.798Z,-1.02
2023-02-28T08:53:09.241Z,-0.90
2023-02-28T08:56:21.150Z,-0.84
2023-02-28T08:59:26.958Z,-0.63
2023-02-28T09:02:33.465Z,-0.45
2023-02-28T09:05:39.339Z,-0.35
2023-02-28T09:08:46.657Z,-0.26
2023-02-28T09:11:54.830Z,-0.22
2023-02-28T09:15:01.215Z,-0.21
2023-02-28T09:18:06.731Z,-0.01
2023-02-28T09:21:19.424Z,0.13
2023-02-28T09:24:24.897Z,0.22
2023-02-28T09:27:35.124Z,0.39
2023-02-28T09:30:41.399Z,0.49
2023-02-28T09:33:48.134Z,0.49
2023-02-28T09:36:56.571Z,0.57
2023-02-28T09:40:03.455Z,0.48
2023-02-28T09:43:21.845Z,0.45
2023-02-28T09:46:41.876Z,0.08
2023-02-28T09:49:52.055Z,0.51
2023-02-28T09:53:00.621Z,0.68
2023-02-28T09:56:14.278Z,0.67
2023-02-28T09:59:44.365Z,0.60
2023-02-28T10:03:28.061Z,0.55
2023-02-28T10:06:48.385Z,0.57
2023-02-28T10:10:04.348Z,0.55
2023-02-28T10:13:29.041Z,0.45
2023-02-28T10:16:47.517Z,0.37
2023-02-28T10:20:09.061Z,0.22
2023-02-28T10:23:24.979Z,0.16
2023-02-28T10:26:37.003Z,-0.19
2023-02-28T10:29:48.913Z,0.13
2023-02-28T10:32:58.179Z,0.32
2023-02-28T10:36:04.360Z,0.57
2023-02-28T10:39:43.018Z,0.75
2023-02-28T10:43:02.535Z,0.81
2023-02-28T10:46:27.212Z,1.09
2023-02-28T10:49:35.962Z,1.15
2023-02-28T10:52:44.835Z,1.04
2023-02-28T10:56:02.700Z,1.01
2023-02-28T10:59:34.033Z,1.06
2023-02-28T11:02:44.093Z,1.13
2023-02-28T11:05:53.206Z,1.09
2023-02-28T11:09:03.501Z,1.03
2023-02-28T11:12:23.531Z,1.12
2023-02-28T11:15:33.654Z,1.09
2023-02-28T11:18:50.877Z,1.06
2023-02-28T11:22:04.725Z,0.91
2023-02-28T11:25:24.094Z,0.87
2023-02-28T11:28:33.697Z,0.62
2023-02-28T11:31:40.029Z,0.56
2023-02-28T11:34:47.493Z,0.51
2023-02-28T11:37:57.487Z,0.52
2023-02-28T11:41:44.275Z,0.47
2023-02-28T11:45:20.530Z,0.49
2023-02-28T11:48:37.043Z,0.55
2023-02-28T11:51:58.121Z,0.49
2023-02-28T11:55:23.577Z,0.38
2023-02-28T11:58:48.682Z,0.30
2023-02-28T12:02:25.214Z,0.27
2023-02-28T12:05:47.146Z,0.21
2023-02-28T12:09:08.409Z,0.20
2023-02-28T12:12:39.733Z,0.32
2023-02-28T12:16:24.532Z,0.39
2023-02-28T12:19:45.964Z,0.45
2023-02-28T12:23:12.763Z,0.53
2023-02-28T12:26:35.773Z,0.51
2023-02-28T12:29:54.392Z,0.39
2023-02-28T12:33:11.776Z,0.24
2023-02-28T12:36:25.052Z,0.18
2023-02-28T12:39:49.873Z,0.21
2023-02-28T12:43:02.590Z,0.18
2023-02-28T12:46:22.695Z,0.13
2023-02-28T12:49:36.985Z,0.08
2023-02-28T12:52:58.573Z,0.09
2023-02-28T12:56:26.439Z,0.03
2023-02-28T12:59:44.399Z,0.01
2023-02-28T13:03:46.823Z,-0.10
2023-02-28T13:07:23.584Z,-0.09
2023-02-28T13:10:43.134Z,-0.11
2023-02-28T13:13:50.218Z,0.06
2023-02-28T13:17:14.390Z,0.11
2023-02-28T13:20:29.194Z,0.24
2023-02-28T13:24:03.335Z,0.34
2023-02-28T13:27:43.941Z,0.35
2023-02-28T13:31:09.104Z,0.05
2023-02-28T13:34:20.411Z,0.10
2023-02-28T13:37:50.997Z,0.11
2023-02-28T13:40:58.452Z,0.15
2023-02-28T13:44:09.045Z,0.20
2023-02-28T13:47:31.925Z,0.23
2023-02-28T13:50:41.626Z,0.27
2023-02-28T13:54:19.350Z,0.31
2023-02-28T13:57:46.388Z,0.28
2023-02-28T14:01:20.925Z,0.37
2023-02-28T14:05:03.277Z,0.55
2023-02-28T14:08:19.374Z,0.50
2023-02-28T14:11:40.601Z,0.58
2023-02-28T14:15:00.998Z,0.54
2023-02-28T14:18:19.894Z,0.49
2023-02-28T14:21:31.066Z,0.40
2023-02-28T14:25:12.394Z,0.45
2023-02-28T14:28:43.949Z,0.35
2023-02-28T14:32:02.343Z,0.38
2023-02-28T14:35:32.565Z,0.41
2023-02-28T14:38:49.461Z,0.35
2023-02-28T14:41:58.693Z,0.37
2023-02-28T14:45:08.351Z,0.47
2023-02-28T14:48:14.990Z,0.55
2023-02-28T14:51:25.364Z,0.55
2023-02-28T14:54:33.330Z,0.60
2023-02-28T14:57:45.889Z,0.63
2023-02-28T15:00:58.284Z,0.65
2023-02-28T15:04:09.284Z,0.61
2023-02-28T15:07:19.076Z,0.54
2023-02-28T15:10:30.172Z,0.56
2023-02-28T15:13:46.164Z,0.27
2023-02-28T15:17:03.359Z,0.55
2023-02-28T15:20:17.185Z,0.62
2023-02-28T15:23:26.639Z,0.62
2023-02-28T15:26:39.695Z,0.52
2023-02-28T15:29:53.204Z,0.57
2023-02-28T15:33:26.189Z,0.52
2023-02-28T15:36:38.319Z,0.48
2023-02-28T15:39:48.961Z,0.44
2023-02-28T15:43:10.838Z,0.41
2023-02-28T15:46:19.103Z,0.37
2023-02-28T15:49:28.341Z,0.30
2023-02-28T15:52:45.002Z,0.31
2023-02-28T15:56:00.280Z,0.02
2023-02-28T15:59:17.970Z,0.15
2023-02-28T16:02:27.184Z,-0.35
2023-02-28T16:05:36.632Z,0.07
2023-02-28T16:08:42.111Z,-0.01
2023-02-28T16:11:52.743Z,-0.08
2023-02-28T16:15:04.081Z,0.01
2023-02-28T16:18:16.177Z,0.06
2023-02-28T16:21:24.613Z,0.09
2023-02-28T16:24:31.224Z,0.10
2023-02-28T16:27:42.324Z,0.09
2023-02-28T16:30:48.946Z,0.08
2023-02-28T16:33:54.497Z,0.11
2023-02-28T16:37:03.718Z,0.12
2023-02-28T16:40:11.709Z,0.09
2023-02-28T16:43:23.941Z,0.06
2023-02-28T16:46:37.405Z,0.02
2023-02-28T16:49:44.332Z,-0.03
2023-02-28T16:52:53.666Z,-0.05
2023-02-28T16:56:03.049Z,-0.07
2023-02-28T16:59:08.792Z,-0.11
2023-02-28T17:02:20.901Z,-0.16
2023-02-28T17:05:28.467Z,-0.20
2023-02-28T17:08:37.937Z,-0.24
2023-02-28T17:11:43.698Z,-0.30
2023-02-28T17:14:50.077Z,-0.35
2023-02-28T17:17:55.674Z,-0.38
2023-02-28T17:21:02.277Z,-0.47
2023-02-28T17:24:16.503Z,-0.51
2023-02-28T17:27:26.197Z,-0.50
2023-02-28T17:30:32.751Z,-0.55
2023-02-28T17:33:39.136Z,-0.60
2023-02-28T17:36:44.855Z,-0.63
2023-02-28T17:39:54.000Z,-0.68
2023-02-28T17:43:00.222Z,-0.71
2023-02-28T17:46:06.895Z,-0.79
2023-02-28T17:49:14.282Z,-0.78
2023-02-28T17:52:20.695Z,-0.82
2023-02-28T17:55:28.926Z,-0.87
2023-02-28T17:58:35.366Z,-0.91
2023-02-28T18:01:41.022Z,-0.93
2023-02-28T18:04:47.464Z,-0.97
2023-02-28T18:07:53.556Z,-1.00
2023-02-28T18:11:03.017Z,-1.03
2023-02-28T18:14:08.694Z,-1.06
2023-02-28T18:17:16.717Z,-1.08
2023-02-28T18:20:22.905Z,-1.11
2023-02-28T18:23:29.332Z,-1.14
2023-02-28T18:26:38.149Z,-1.18
2023-02-28T18:29:44.481Z,-1.20
2023-02-28T18:32:50.137Z,-1.21
2023-02-28T18:36:00.788Z,-1.24
2023-02-28T18:39:06.721Z,-1.27
2023-02-28T18:42:16.068Z,-1.29
2023-02-28T18:45:21.597Z,-1.32
2023-02-28T18:48:28.397Z,-1.32
2023-02-28T18:51:34.308Z,-1.39
2023-02-28T18:54:40.661Z,-1.33
2023-02-28T18:57:50.223Z,-1.38
2023-02-28T19:00:56.943Z,-1.40
2023-02-28T19:04:04.562Z,-1.45
2023-02-28T19:07:11.239Z,-1.46
2023-02-28T19:10:17.898Z,-1.47
2023-02-28T19:13:27.044Z,-1.48
2023-02-28T19:16:33.543Z,-1.47
2023-02-28T19:19:40.160Z,-1.47
2023-02-28T19:22:45.922Z,-1.54
2023-02-28T19:25:52.412Z,-1.53
2023-02-28T19:29:00.707Z,-1.48
2023-02-28T19:32:07.380Z,-1.49
2023-02-28T19:35:13.223Z,-1.51
2023-02-28T19:38:20.554Z,-1.53
2023-02-28T19:41:26.184Z,-1.54
2023-02-28T19:44:35.436Z,-1.55
2023-02-28T19:47:41.365Z,-1.55
2023-02-28T19:50:47.789Z,-1.57
2023-02-28T19:53:53.456Z,-1.60
2023-02-28T19:57:02.119Z,-1.63
2023-02-28T20:00:17.354Z,-1.66
2023-02-28T20:03:24.078Z,-1.68
2023-02-28T20:06:30.081Z,-1.67
2023-02-28T20:09:37.194Z,-1.68
2023-02-28T20:12:42.959Z,-1.72
2023-02-28T20:15:52.403Z,-1.74
2023-02-28T20:18:58.589Z,-1.75
2023-02-28T20:22:05.485Z,-1.82
2023-02-28T20:25:12.463Z,-1.85
2023-02-28T20:28:19.037Z,-1.86
2023-02-28T20:31:30.769Z,-1.85
2023-02-28T20:34:37.600Z,-1.86
2023-02-28T20:37:44.857Z,-1.85
2023-02-28T20:40:51.277Z,-1.87
2023-02-28T20:43:58.376Z,-1.86
2023-02-28T20:47:07.870Z,-1.87
2023-02-28T20:50:14.989Z,-1.91
2023-02-28T20:53:22.140Z,-1.92
2023-02-28T20:56:28.618Z,-1.93
2023-02-28T20:59:35.928Z,-1.96
2023-02-28T21:02:44.461Z,-1.97
2023-02-28T21:05:50.860Z,-2.04
2023-02-28T21:08:57.354Z,-2.06
2023-02-28T21:12:03.770Z,-2.10
2023-02-28T21:15:10.940Z,-2.23
2023-02-28T21:18:20.097Z,-2.20
2023-02-28T21:21:28.406Z,-2.21
2023-02-28T21:24:35.147Z,-2.21
2023-02-28T21:27:40.816Z,-2.18
2023-02-28T21:30:47.227Z,-2.17
2023-02-28T21:33:57.447Z,-2.15
2023-02-28T21:37:04.007Z,-2.13
2023-02-28T21:40:11.959Z,-2.10
2023-02-28T21:43:18.291Z,-2.09
2023-02-28T21:46:26.550Z,-2.09
2023-02-28T21:49:35.827Z,-2.06
2023-02-28T21:52:41.909Z,-2.07
2023-02-28T21:55:48.212Z,-2.10
2023-02-28T21:59:01.619Z,-2.12
2023-02-28T22:02:10.854Z,-2.18
2023-02-28T22:05:19.446Z,-2.15
2023-02-28T22:08:25.745Z,-2.17
2023-02-28T22:11:32.424Z,-2.33
2023-02-28T22:14:40.062Z,-2.19
2023-02-28T22:17:45.859Z,-2.18
2023-02-28T22:20:59.961Z,-2.20
2023-02-28T22:24:06.226Z,-2.19
2023-02-28T22:27:12.569Z,-2.19
2023-02-28T22:30:18.838Z,-2.18
2023-02-28T22:33:25.162Z,-2.22
2023-02-28T22:36:34.685Z,-2.32
2023-02-28T22:39:41.010Z,-2.26
2023-02-28T22:42:46.393Z,-2.30
2023-02-28T22:45:52.719Z,-2.31
2023-02-28T22:48:58.942Z,-2.33
2023-02-28T22:52:08.635Z,-2.36
2023-02-28T22:55:14.587Z,-2.47
2023-02-28T22:58:20.881Z,-2.69
2023-02-28T23:01:30.092Z,-2.78
2023-02-28T23:04:36.744Z,-2.89
2023-02-28T23:07:46.770Z,-3.05
2023-02-28T23:10:54.139Z,-3.18
2023-02-28T23:14:03.322Z,-3.33
2023-02-28T23:17:09.621Z,-3.46
2023-02-28T23:20:16.436Z,-3.51
2023-02-28T23:23:31.280Z,-3.55
2023-02-28T23:26:36.818Z,-3.57
2023-02-28T23:29:43.885Z,-3.62
2023-02-28T23:32:49.373Z,-3.63
2023-02-28T23:35:58.654Z,-3.63
2023-02-28T23:39:07.105Z,-3.61
2023-02-28T23:42:14.425Z,-3.68
2023-02-28T23:45:20.156Z,-3.74
2023-02-28T23:48:26.458Z,-3.75
2023-02-28T23:51:31.933Z,-3.75
2023-02-28T23:54:40.962Z,-3.74
2023-02-28T23:57:46.425Z,-3.77
